Tropical Cyclones
[Index]
Season 2019-2020 Tropical Cyclone FERDINAND Track Map
Season 2019-2020 Summaries (Operational Data): [AU] [SIO] [SPAC] [SH]
<<- Previous TC | 2019-2020 Season | Next TC ->>

click for intensity scale information  Lat/long Grid: Show Hide

 Date Labels: Show Hide

Operational Tropical Cyclone Data

Name: FERDINAND
Number: 2020

21 Feb 2020 06:00 UTC to 01 Mar 2020 06:00 UTC

    date/time    lat    long     hPa   cat  kts
2020-02-21 06   12.7   118.1    1008         15          
2020-02-21 12   11.7   117.9    1010         15          
2020-02-21 18   12.2   118.3    1010         15          
2020-02-22 00   11.6   118.8    1010         15          
2020-02-22 06   12.0   119.0    1006         20          
2020-02-22 12   11.1   119.4    1006         20          
2020-02-22 18   11.5   119.3    1007         20          
2020-02-23 00   11.9   119.2    1005         25          
2020-02-23 06   12.4   119.1    1004         25          
2020-02-23 12   12.9   118.7    1001         30          
2020-02-23 18   13.4   118.7    1002    1    35          
2020-02-24 00   13.9   118.4    1002    1    40          
2020-02-24 06   14.4   118.0     999    1    45          
2020-02-24 12   14.9   117.5     992    2    55          
2020-02-24 18   15.0   117.4     990    2    60          
2020-02-25 00   15.3   117.1     986    3    65          
2020-02-25 06   15.5   116.7     970    3    85          
2020-02-25 12   15.8   116.5     967    4    90          
2020-02-25 18   15.9   116.0     962    4    95          
2020-02-26 00   15.8   115.5     963    4    95          
2020-02-26 06   16.1   115.2     962    4    95          
2020-02-26 12   16.3   114.8     962    4    95          
2020-02-26 18   16.5   114.7     966    4    90          
2020-02-27 00   16.5   114.4     974    3    80          
2020-02-27 06   16.7   114.3     984    3    65          
2020-02-27 12   16.8   114.0     991    2    55          
2020-02-27 18   16.7   113.6     990    2    55          
2020-02-28 00   16.5   113.3     994    2    50          
2020-02-28 06   16.5   112.9     996    1    45          
2020-02-28 12   16.3   112.6     998    1    40          
2020-02-28 18   16.1   112.2     996    1    45          
2020-02-29 00   15.9   111.7     998    1    40          
2020-02-29 06   15.7   111.5     998    1    35          
2020-02-29 12   15.4   111.3    1000         30          
2020-02-29 18   15.0   110.9    1000         30          
2020-03-01 00   14.8   110.7    1001         30          
2020-03-01 06   14.6   109.7    1003         25          
Winds are 10-min average.

Tropical cyclone tracks developed by Michael Bath using operational warnings and advisories and Google Maps.


Document: tropical_cyclone_ferdinand.htm
Updated: 17 June 2020
[Australian Severe Weather index] [Copyright Notice] [Email Contacts] [Search This Site] [Privacy Policy]


Main Index Home Page Stock Weather Photos Extreme Storms Discussion Storm News and Storm Chasing Reports Tropical Cyclones / Hurricanes / Typhoons Weather Data and Links Wild Fires / Bushfires Weather Observation Techniques Weather Picture Catalogue Tornado Pictures and Reports Stock Video Footage and DVDs for sale